createdAt,value
2016-06-24T00:00:10.167Z,1014.48
2016-06-24T00:01:10.163Z,1014.45
2016-06-24T00:02:10.169Z,1014.44
2016-06-24T00:03:10.173Z,1014.41
2016-06-24T00:04:11.226Z,1014.48
2016-06-24T00:05:10.174Z,1014.47
2016-06-24T00:07:10.282Z,1014.43
2016-06-24T00:08:10.180Z,1014.4
2016-06-24T00:09:10.183Z,1014.37
2016-06-24T00:10:10.183Z,1014.35
2016-06-24T00:11:10.184Z,1014.34
2016-06-24T00:12:10.186Z,1014.31
2016-06-24T00:13:10.190Z,1014.31
2016-06-24T00:14:10.189Z,1014.34
2016-06-24T00:15:10.190Z,1014.3
2016-06-24T00:16:10.189Z,1014.34
2016-06-24T00:17:10.194Z,1014.33
2016-06-24T00:18:10.196Z,1014.35
2016-06-24T00:19:10.198Z,1014.39
2016-06-24T00:20:10.204Z,1014.38
2016-06-24T00:21:10.204Z,1014.4
2016-06-24T00:22:10.200Z,1014.39
2016-06-24T00:23:10.205Z,1014.36
2016-06-24T00:24:10.207Z,1014.39
2016-06-24T00:25:10.210Z,1014.42
2016-06-24T00:26:10.207Z,1014.4
2016-06-24T00:27:10.208Z,1014.4
2016-06-24T00:28:10.211Z,1014.4
2016-06-24T00:29:10.215Z,1014.4
2016-06-24T00:30:10.220Z,1014.37
2016-06-24T00:31:10.218Z,1014.4
2016-06-24T00:32:10.218Z,1014.42
2016-06-24T00:33:10.218Z,1014.4
2016-06-24T00:34:10.221Z,1014.41
2016-06-24T00:35:10.226Z,1014.44
2016-06-24T00:36:10.238Z,1014.45
2016-06-24T00:37:10.229Z,1014.41
2016-06-24T00:38:10.223Z,1014.42
2016-06-24T00:39:10.230Z,1014.4
2016-06-24T00:40:10.234Z,1014.41
2016-06-24T00:41:10.231Z,1014.38
2016-06-24T00:42:10.236Z,1014.39
2016-06-24T00:43:10.234Z,1014.39
2016-06-24T00:44:10.239Z,1014.41
2016-06-24T00:45:10.238Z,1014.4
2016-06-24T00:46:10.239Z,1014.38
2016-06-24T00:47:10.239Z,1014.39
2016-06-24T00:48:10.242Z,1014.37
2016-06-24T00:49:10.249Z,1014.41
2016-06-24T00:50:10.244Z,1014.39
2016-06-24T00:51:10.243Z,1014.4
2016-06-24T00:52:10.245Z,1014.38
2016-06-24T00:53:10.251Z,1014.4
2016-06-24T00:54:10.249Z,1014.46
2016-06-24T00:55:10.253Z,1014.42
2016-06-24T00:56:10.255Z,1014.45
2016-06-24T00:57:10.253Z,1014.37
2016-06-24T00:58:10.985Z,1014.39
2016-06-24T00:59:10.256Z,1014.4
2016-06-24T01:00:10.256Z,1014.38
2016-06-24T01:01:10.261Z,1014.38
2016-06-24T01:02:10.264Z,1014.38
2016-06-24T01:03:10.261Z,1014.39
2016-06-24T01:04:10.268Z,1014.39
2016-06-24T01:05:10.268Z,1014.37
2016-06-24T01:06:10.975Z,1014.36
2016-06-24T01:07:10.300Z,1014.39
2016-06-24T01:08:10.269Z,1014.39
2016-06-24T01:09:10.269Z,1014.41
2016-06-24T01:10:10.273Z,1014.43
2016-06-24T01:11:10.270Z,1014.4
2016-06-24T01:12:10.275Z,1014.47
2016-06-24T01:13:10.725Z,1014.44
2016-06-24T01:14:10.280Z,1014.44
2016-06-24T01:15:11.083Z,1014.42
2016-06-24T01:17:10.281Z,1014.35
2016-06-24T01:18:10.281Z,1014.42
2016-06-24T01:19:10.282Z,1014.39
2016-06-24T01:20:10.283Z,1014.42
2016-06-24T01:21:10.287Z,1014.43
2016-06-24T01:22:10.285Z,1014.43
2016-06-24T01:23:10.284Z,1014.45
2016-06-24T01:24:10.304Z,1014.44
2016-06-24T01:25:10.287Z,1014.41
2016-06-24T01:26:10.291Z,1014.39
2016-06-24T01:27:10.294Z,1014.37
2016-06-24T01:28:10.296Z,1014.34
2016-06-24T01:29:10.295Z,1014.37
2016-06-24T01:30:10.295Z,1014.36
2016-06-24T01:31:10.294Z,1014.36
2016-06-24T01:32:10.299Z,1014.34
2016-06-24T01:33:10.301Z,1014.34
2016-06-24T01:34:10.298Z,1014.35
2016-06-24T01:35:10.298Z,1014.34
2016-06-24T01:36:10.304Z,1014.29
2016-06-24T01:37:10.309Z,1014.29
2016-06-24T01:38:10.303Z,1014.29
2016-06-24T01:39:10.302Z,1014.34
2016-06-24T01:40:10.302Z,1014.34
2016-06-24T01:41:10.307Z,1014.36
2016-06-24T01:42:10.307Z,1014.36
2016-06-24T01:43:10.319Z,1014.33
2016-06-24T01:44:10.310Z,1014.32
2016-06-24T01:45:10.310Z,1014.3
2016-06-24T01:46:10.307Z,1014.3
2016-06-24T01:47:10.324Z,1014.29
2016-06-24T01:48:10.311Z,1014.28
2016-06-24T01:49:10.313Z,1014.26
2016-06-24T01:50:10.317Z,1014.25
2016-06-24T01:51:10.314Z,1014.23
2016-06-24T01:52:10.313Z,1014.2
2016-06-24T01:53:10.313Z,1014.2
2016-06-24T01:54:10.317Z,1014.2
2016-06-24T01:55:10.321Z,1014.21
2016-06-24T01:56:10.319Z,1014.2
2016-06-24T01:57:10.321Z,1014.23
2016-06-24T01:58:10.318Z,1014.24
2016-06-24T01:59:10.320Z,1014.19
2016-06-24T02:00:10.322Z,1014.22
2016-06-24T02:01:10.319Z,1014.22
2016-06-24T02:02:10.325Z,1014.16
2016-06-24T02:03:10.326Z,1014.16
2016-06-24T02:04:10.324Z,1014.15
2016-06-24T02:05:10.327Z,1014.14
2016-06-24T02:06:10.327Z,1014.17
2016-06-24T02:07:10.329Z,1014.2
2016-06-24T02:08:10.328Z,1014.19
2016-06-24T02:09:10.328Z,1014.22
2016-06-24T02:10:10.335Z,1014.23
2016-06-24T02:11:10.328Z,1014.24
2016-06-24T02:12:10.330Z,1014.24
2016-06-24T02:13:10.337Z,1014.23
2016-06-24T02:14:10.333Z,1014.21
2016-06-24T02:15:10.925Z,1014.2
2016-06-24T02:16:10.335Z,1014.12
2016-06-24T02:17:10.483Z,1014.13
2016-06-24T02:18:10.796Z,1014.13
2016-06-24T02:19:10.331Z,1014.13
2016-06-24T02:20:10.338Z,1014.14
2016-06-24T02:21:10.334Z,1014.14
2016-06-24T02:22:10.342Z,1014.19
2016-06-24T02:23:10.335Z,1014.21
2016-06-24T02:24:10.333Z,1014.19
2016-06-24T02:25:11.130Z,1014.2
2016-06-24T02:26:10.342Z,1014.21
2016-06-24T02:27:10.335Z,1014.16
2016-06-24T02:28:10.340Z,1014.13
2016-06-24T02:29:10.337Z,1014.13
2016-06-24T02:30:10.340Z,1014.1
2016-06-24T02:31:10.341Z,1014.16
2016-06-24T02:32:10.339Z,1014.13
2016-06-24T02:33:10.343Z,1014.15
2016-06-24T02:34:10.546Z,1014.12
2016-06-24T02:35:10.346Z,1014.1
2016-06-24T02:36:10.359Z,1014.07
2016-06-24T02:37:10.895Z,1014.06
2016-06-24T02:38:10.342Z,1014
2016-06-24T02:39:10.346Z,1013.99
2016-06-24T02:40:10.374Z,1013.99
2016-06-24T02:41:10.394Z,1014
2016-06-24T02:42:10.793Z,1014.03
2016-06-24T02:43:10.346Z,1014.03
2016-06-24T02:44:10.345Z,1014.05
2016-06-24T02:45:10.343Z,1014.07
2016-06-24T02:46:10.349Z,1014.09
2016-06-24T02:47:10.350Z,1014.07
2016-06-24T02:48:10.388Z,1014.11
2016-06-24T02:49:10.346Z,1014.1
2016-06-24T02:50:10.352Z,1014.1
2016-06-24T02:51:10.355Z,1014.15
2016-06-24T02:52:10.350Z,1014.14
2016-06-24T02:53:10.351Z,1014.13
2016-06-24T02:54:10.359Z,1014.15
2016-06-24T02:55:10.355Z,1014.16
2016-06-24T02:56:10.354Z,1014.14
2016-06-24T02:57:10.351Z,1014.14
2016-06-24T02:58:10.352Z,1014.18
2016-06-24T02:59:10.353Z,1014.18
2016-06-24T03:00:10.352Z,1014.21
2016-06-24T03:01:10.357Z,1014.22
2016-06-24T03:02:10.357Z,1014.24
2016-06-24T03:03:10.359Z,1014.23
2016-06-24T03:04:10.362Z,1014.3
2016-06-24T03:05:10.360Z,1014.3
2016-06-24T03:06:10.361Z,1014.33
2016-06-24T03:07:10.361Z,1014.29
2016-06-24T03:08:10.373Z,1014.31
2016-06-24T03:09:10.358Z,1014.32
2016-06-24T03:10:10.360Z,1014.29
2016-06-24T03:11:10.362Z,1014.31
2016-06-24T03:12:10.367Z,1014.28
2016-06-24T03:13:10.363Z,1014.3
2016-06-24T03:14:10.364Z,1014.32
2016-06-24T03:15:10.362Z,1014.26
2016-06-24T03:16:10.367Z,1014.29
2016-06-24T03:17:10.366Z,1014.28
2016-06-24T03:18:10.367Z,1014.22
2016-06-24T03:19:10.372Z,1014.25
2016-06-24T03:20:10.380Z,1014.28
2016-06-24T03:21:10.374Z,1014.31
2016-06-24T03:22:10.370Z,1014.35
2016-06-24T03:23:10.371Z,1014.34
2016-06-24T03:24:10.371Z,1014.36
2016-06-24T03:25:10.377Z,1014.28
2016-06-24T03:26:10.371Z,1014.26
2016-06-24T03:27:10.375Z,1014.26
2016-06-24T03:28:10.375Z,1014.23
2016-06-24T03:29:10.377Z,1014.24
2016-06-24T03:30:10.382Z,1014.25
2016-06-24T03:31:10.380Z,1014.22
2016-06-24T03:32:10.381Z,1014.21
2016-06-24T03:33:11.636Z,1014.22
2016-06-24T03:34:11.162Z,1014.19
2016-06-24T03:35:10.385Z,1014.23
2016-06-24T03:36:10.473Z,1014.18
2016-06-24T03:37:10.392Z,1014.14
2016-06-24T03:38:10.394Z,1014.14
2016-06-24T03:39:10.395Z,1014.07
2016-06-24T03:40:10.427Z,1014.09
2016-06-24T03:41:10.405Z,1014.1
2016-06-24T03:42:10.402Z,1014.08
2016-06-24T03:43:10.408Z,1014.06
2016-06-24T03:44:10.412Z,1014.07
2016-06-24T03:45:10.430Z,1014.07
2016-06-24T03:46:10.418Z,1014.13
2016-06-24T03:47:10.460Z,1014.15
2016-06-24T03:48:10.567Z,1014.16
2016-06-24T03:49:10.433Z,1014.21
2016-06-24T03:50:10.441Z,1014.15
2016-06-24T03:51:11.300Z,1014.13
2016-06-24T03:52:10.450Z,1014.13
2016-06-24T03:53:10.455Z,1014.06
2016-06-24T03:54:10.612Z,1014.07
2016-06-24T03:55:10.466Z,1014.04
2016-06-24T03:56:10.480Z,1013.97
2016-06-24T03:57:10.479Z,1013.95
2016-06-24T03:58:10.484Z,1013.87
2016-06-24T03:59:11.590Z,1013.89
2016-06-24T04:00:10.499Z,1013.84
2016-06-24T04:01:10.511Z,1013.92
2016-06-24T04:02:10.518Z,1013.91
2016-06-24T04:03:10.525Z,1013.85
2016-06-24T04:04:10.531Z,1013.87
2016-06-24T04:05:10.531Z,1013.89
2016-06-24T04:06:10.541Z,1013.84
2016-06-24T04:07:10.554Z,1013.85
2016-06-24T04:08:10.558Z,1013.87
2016-06-24T04:09:10.566Z,1013.83
2016-06-24T04:10:10.576Z,1013.88
2016-06-24T04:11:10.587Z,1013.88
2016-06-24T04:12:10.591Z,1013.82
2016-06-24T04:13:10.603Z,1013.83
2016-06-24T04:14:10.608Z,1013.86
2016-06-24T04:15:10.616Z,1013.91
2016-06-24T04:16:10.631Z,1013.92
2016-06-24T04:17:10.737Z,1013.94
2016-06-24T04:18:10.654Z,1013.97
2016-06-24T04:19:10.662Z,1013.99
2016-06-24T04:20:10.667Z,1013.99
2016-06-24T04:21:10.676Z,1013.96
2016-06-24T04:22:10.683Z,1013.98
2016-06-24T04:23:10.706Z,1013.95
2016-06-24T04:24:10.710Z,1013.92
2016-06-24T04:25:10.722Z,1013.89
2016-06-24T04:26:10.729Z,1013.87
2016-06-24T04:27:10.741Z,1013.92
2016-06-24T04:28:10.753Z,1013.94
2016-06-24T04:29:10.760Z,1013.94
2016-06-24T04:30:10.772Z,1013.99
2016-06-24T04:31:10.785Z,1014.04
2016-06-24T04:32:10.794Z,1014.11
2016-06-24T04:33:10.809Z,1014.09
2016-06-24T04:34:10.827Z,1014.11
2016-06-24T04:35:10.832Z,1014.08
2016-06-24T04:36:10.845Z,1014.07
2016-06-24T04:37:10.857Z,1014.09
2016-06-24T04:38:10.866Z,1014.09
2016-06-24T04:39:10.881Z,1014.13
2016-06-24T04:40:10.890Z,1014.2
2016-06-24T04:41:10.902Z,1014.24
2016-06-24T04:42:10.919Z,1014.31
2016-06-24T04:43:10.929Z,1014.37
2016-06-24T04:44:10.941Z,1014.41
2016-06-24T04:45:10.955Z,1014.4
2016-06-24T04:46:10.964Z,1014.43
2016-06-24T04:47:10.982Z,1014.43
2016-06-24T04:48:10.991Z,1014.4
2016-06-24T04:49:11.008Z,1014.42
2016-06-24T04:50:11.023Z,1014.41
2016-06-24T04:51:11.037Z,1014.38
2016-06-24T04:52:11.192Z,1014.38
2016-06-24T04:53:11.062Z,1014.37
2016-06-24T04:54:11.079Z,1014.29
2016-06-24T04:55:11.094Z,1014.29
2016-06-24T04:56:11.111Z,1014.28
2016-06-24T04:57:11.136Z,1014.22
2016-06-24T04:58:11.138Z,1014.22
2016-06-24T04:59:11.146Z,1014.27
2016-06-24T05:00:11.564Z,1014.28
2016-06-24T05:01:11.177Z,1014.35
2016-06-24T05:02:12.233Z,1014.4
2016-06-24T05:03:12.568Z,1014.46
2016-06-24T05:04:11.224Z,1014.44
2016-06-24T05:05:11.239Z,1014.39
2016-06-24T05:06:11.254Z,1014.41
2016-06-24T05:07:11.587Z,1014.37
2016-06-24T05:08:11.284Z,1014.41
2016-06-24T05:09:11.907Z,1014.41
2016-06-24T05:11:11.330Z,1014.47
2016-06-24T05:12:11.801Z,1014.5
2016-06-24T05:13:11.567Z,1014.48
2016-06-24T05:14:11.378Z,1014.45
2016-06-24T05:15:11.398Z,1014.51
2016-06-24T05:16:11.414Z,1014.56
2016-06-24T05:17:11.687Z,1014.65
2016-06-24T05:18:11.452Z,1014.67
2016-06-24T05:19:11.465Z,1014.69
2016-06-24T05:20:12.376Z,1014.69
2016-06-24T05:21:11.499Z,1014.71
2016-06-24T05:22:11.612Z,1014.74
2016-06-24T05:23:11.527Z,1014.71
2016-06-24T05:24:11.546Z,1014.68
2016-06-24T05:25:11.566Z,1014.69
2016-06-24T05:26:11.588Z,1014.68
2016-06-24T05:27:11.597Z,1014.66
2016-06-24T05:28:11.617Z,1014.65
2016-06-24T05:29:11.636Z,1014.65
2016-06-24T05:30:11.651Z,1014.63
2016-06-24T05:31:11.671Z,1014.62
2016-06-24T05:32:11.690Z,1014.58
2016-06-24T05:33:11.706Z,1014.55
2016-06-24T05:34:11.725Z,1014.55
2016-06-24T05:35:11.746Z,1014.59
2016-06-24T05:36:11.768Z,1014.56
2016-06-24T05:37:11.782Z,1014.56
2016-06-24T05:38:11.798Z,1014.58
2016-06-24T05:39:11.821Z,1014.65
2016-06-24T05:40:11.836Z,1014.63
2016-06-24T05:41:11.859Z,1014.53
2016-06-24T05:42:11.872Z,1014.56
2016-06-24T05:43:11.894Z,1014.57
2016-06-24T05:44:11.911Z,1014.6
2016-06-24T05:45:11.936Z,1014.57
2016-06-24T05:46:11.951Z,1014.6
2016-06-24T05:47:11.969Z,1014.61
2016-06-24T05:48:11.994Z,1014.62
2016-06-24T05:49:12.010Z,1014.53
2016-06-24T05:50:12.028Z,1014.53
2016-06-24T05:51:12.050Z,1014.56
2016-06-24T05:52:12.066Z,1014.62
2016-06-24T05:53:12.083Z,1014.61
2016-06-24T05:54:12.104Z,1014.63
2016-06-24T05:55:12.136Z,1014.64
2016-06-24T05:56:12.144Z,1014.64
2016-06-24T05:57:12.167Z,1014.6
2016-06-24T05:58:12.184Z,1014.6
2016-06-24T05:59:12.201Z,1014.61
2016-06-24T06:00:12.234Z,1014.59
2016-06-24T06:01:12.244Z,1014.57
2016-06-24T06:02:12.264Z,1014.55
2016-06-24T06:03:12.282Z,1014.53
2016-06-24T06:04:12.301Z,1014.56
2016-06-24T06:05:12.320Z,1014.55
2016-06-24T06:06:12.350Z,1014.58
2016-06-24T06:07:12.361Z,1014.59
2016-06-24T06:08:12.379Z,1014.59
2016-06-24T06:09:12.401Z,1014.6
2016-06-24T06:10:13.323Z,1014.61
2016-06-24T06:11:12.674Z,1014.55
2016-06-24T06:12:13.825Z,1014.54
2016-06-24T06:13:12.484Z,1014.54
2016-06-24T06:14:12.499Z,1014.57
2016-06-24T06:15:12.643Z,1014.53
2016-06-24T06:16:12.539Z,1014.53
2016-06-24T06:17:12.806Z,1014.54
2016-06-24T06:18:12.572Z,1014.56
2016-06-24T06:19:12.597Z,1014.55
2016-06-24T06:20:12.626Z,1014.52
2016-06-24T06:21:12.747Z,1014.56
2016-06-24T06:22:12.654Z,1014.57
2016-06-24T06:23:12.675Z,1014.58
2016-06-24T06:24:12.695Z,1014.61
2016-06-24T06:25:12.714Z,1014.59
2016-06-24T06:26:12.743Z,1014.59
2016-06-24T06:27:12.761Z,1014.57
2016-06-24T06:28:12.777Z,1014.56
2016-06-24T06:29:12.796Z,1014.55
2016-06-24T06:30:13.022Z,1014.57
2016-06-24T06:31:12.844Z,1014.58
2016-06-24T06:32:12.862Z,1014.61
2016-06-24T06:33:12.880Z,1014.6
2016-06-24T06:34:13.098Z,1014.61
2016-06-24T06:35:12.921Z,1014.66
2016-06-24T06:36:12.944Z,1014.67
2016-06-24T06:37:13.312Z,1014.71
2016-06-24T06:38:13.033Z,1014.72
2016-06-24T06:39:13.153Z,1014.76
2016-06-24T06:40:13.026Z,1014.73
2016-06-24T06:41:13.396Z,1014.74
2016-06-24T06:42:13.060Z,1014.79
2016-06-24T06:43:13.082Z,1014.76
2016-06-24T06:44:13.108Z,1014.79
2016-06-24T06:45:13.130Z,1014.79
2016-06-24T06:46:13.150Z,1014.78
2016-06-24T06:47:13.175Z,1014.78
2016-06-24T06:48:13.187Z,1014.76
2016-06-24T06:49:13.208Z,1014.74
2016-06-24T06:50:13.235Z,1014.75
2016-06-24T06:51:13.252Z,1014.76
2016-06-24T06:52:13.276Z,1014.8
2016-06-24T06:53:13.297Z,1014.77
2016-06-24T06:54:13.317Z,1014.79
2016-06-24T06:55:13.341Z,1014.77
2016-06-24T06:56:13.355Z,1014.73
2016-06-24T06:57:13.381Z,1014.72
2016-06-24T06:58:13.403Z,1014.73
2016-06-24T06:59:13.427Z,1014.73
2016-06-24T07:00:13.444Z,1014.74
2016-06-24T07:01:13.468Z,1014.67
2016-06-24T07:02:13.489Z,1014.64
2016-06-24T07:03:13.512Z,1014.63
2016-06-24T07:04:13.530Z,1014.63
2016-06-24T07:05:13.554Z,1014.64
2016-06-24T07:06:13.576Z,1014.66
2016-06-24T07:07:13.593Z,1014.64
2016-06-24T07:08:13.618Z,1014.65
2016-06-24T07:09:13.639Z,1014.67
2016-06-24T07:10:13.659Z,1014.61
2016-06-24T07:11:13.680Z,1014.66
2016-06-24T07:12:13.703Z,1014.64
2016-06-24T07:13:13.727Z,1014.63
2016-06-24T07:14:13.744Z,1014.6
2016-06-24T07:15:13.772Z,1014.61
2016-06-24T07:16:13.789Z,1014.63
2016-06-24T07:17:13.911Z,1014.68
2016-06-24T07:18:13.835Z,1014.68
2016-06-24T07:19:13.853Z,1014.75
2016-06-24T07:20:13.882Z,1014.72
2016-06-24T07:21:13.903Z,1014.77
2016-06-24T07:22:13.922Z,1014.72
2016-06-24T07:23:13.943Z,1014.73
2016-06-24T07:24:13.966Z,1014.72
2016-06-24T07:25:13.988Z,1014.75
2016-06-24T07:27:14.027Z,1014.8
2016-06-24T07:28:15.498Z,1014.87
2016-06-24T07:29:14.069Z,1014.95
2016-06-24T07:30:14.094Z,1014.96
2016-06-24T07:31:14.114Z,1015
2016-06-24T07:32:14.142Z,1015.08
2016-06-24T07:33:14.161Z,1015.13
2016-06-24T07:34:14.193Z,1015.17
2016-06-24T07:35:14.207Z,1015.18
2016-06-24T07:36:14.234Z,1015.17
2016-06-24T07:37:14.242Z,1015.09
2016-06-24T07:38:14.478Z,1015.12
2016-06-24T07:39:14.286Z,1015.17
2016-06-24T07:40:14.313Z,1015.11
2016-06-24T07:41:14.511Z,1015.12
2016-06-24T07:42:14.351Z,1015.14
2016-06-24T07:43:14.378Z,1015.13
2016-06-24T07:44:14.399Z,1015.12
2016-06-24T07:45:14.422Z,1015.09
2016-06-24T07:46:14.443Z,1015.12
2016-06-24T07:47:14.713Z,1015.09
2016-06-24T07:48:14.482Z,1015.04
2016-06-24T07:49:14.514Z,1015.02
2016-06-24T07:50:14.530Z,1015.02
2016-06-24T07:51:14.555Z,1014.93
2016-06-24T07:52:14.575Z,1014.97
2016-06-24T07:53:14.594Z,1014.98
2016-06-24T07:54:14.617Z,1015.04
2016-06-24T07:55:15.092Z,1015.2
2016-06-24T07:56:14.758Z,1015.34
2016-06-24T07:57:14.683Z,1015.51
2016-06-24T07:58:14.701Z,1015.69
2016-06-24T07:59:14.726Z,1015.92
2016-06-24T08:00:14.747Z,1015.95
2016-06-24T08:01:14.770Z,1016.11
2016-06-24T08:02:14.792Z,1016.08
2016-06-24T08:03:14.810Z,1016.06
2016-06-24T08:04:14.834Z,1016.02
2016-06-24T08:05:14.890Z,1016.13
2016-06-24T08:06:14.876Z,1016.23
2016-06-24T08:07:14.900Z,1016.34
2016-06-24T08:08:14.918Z,1016.52
2016-06-24T08:09:14.936Z,1016.69
2016-06-24T08:10:14.962Z,1016.64
2016-06-24T08:11:14.985Z,1016.61
2016-06-24T08:12:15.015Z,1016.39
2016-06-24T08:13:15.024Z,1016.41
2016-06-24T08:14:15.049Z,1016.47
2016-06-24T08:15:15.074Z,1016.31
2016-06-24T08:16:15.091Z,1016.14
2016-06-24T08:17:15.208Z,1016.1
2016-06-24T08:18:15.136Z,1016.06
2016-06-24T08:19:15.153Z,1016.03
2016-06-24T08:20:15.177Z,1015.94
2016-06-24T08:21:15.197Z,1015.88
2016-06-24T08:22:15.217Z,1015.79
2016-06-24T08:23:15.235Z,1015.68
2016-06-24T08:24:15.259Z,1015.57
2016-06-24T08:25:15.280Z,1015.51
2016-06-24T08:26:15.305Z,1015.43
2016-06-24T08:27:15.324Z,1015.35
2016-06-24T08:28:15.347Z,1015.24
2016-06-24T08:29:15.363Z,1015.11
2016-06-24T08:30:15.380Z,1015
2016-06-24T08:31:15.405Z,1014.91
2016-06-24T08:32:15.423Z,1014.86
2016-06-24T08:33:15.444Z,1014.85
2016-06-24T08:34:15.464Z,1014.8
2016-06-24T08:35:15.488Z,1014.72
2016-06-24T08:36:15.510Z,1014.75
2016-06-24T08:37:15.527Z,1014.68
2016-06-24T08:38:15.550Z,1014.68
2016-06-24T08:39:15.568Z,1014.63
2016-06-24T08:40:15.590Z,1014.62
2016-06-24T08:41:15.609Z,1014.59
2016-06-24T08:42:15.630Z,1014.58
2016-06-24T08:43:15.653Z,1014.57
2016-06-24T08:44:15.675Z,1014.65
2016-06-24T08:45:15.698Z,1014.63
2016-06-24T08:47:15.737Z,1014.66
2016-06-24T08:48:15.754Z,1014.68
2016-06-24T08:49:15.783Z,1014.73
2016-06-24T08:50:16.646Z,1014.78
2016-06-24T08:51:15.915Z,1014.76
2016-06-24T08:52:15.837Z,1014.74
2016-06-24T08:53:15.859Z,1014.77
2016-06-24T08:54:15.885Z,1014.79
2016-06-24T08:55:15.902Z,1014.53
2016-06-24T08:56:17.861Z,1014.07
2016-06-24T08:57:17.511Z,1013.92
2016-06-24T08:58:15.958Z,1013.89
2016-06-24T08:59:17.095Z,1013.89
2016-06-24T09:00:16.006Z,1013.88
2016-06-24T09:01:16.026Z,1013.82
2016-06-24T09:02:16.039Z,1013.84
2016-06-24T09:03:16.064Z,1013.85
2016-06-24T09:04:16.431Z,1013.83
2016-06-24T09:05:16.700Z,1013.86
2016-06-24T09:06:16.120Z,1013.9
2016-06-24T09:07:16.187Z,1013.82
2016-06-24T09:08:16.160Z,1013.83
2016-06-24T09:09:16.173Z,1013.82
2016-06-24T09:10:16.187Z,1013.85
2016-06-24T09:11:16.203Z,1013.91
2016-06-24T09:12:16.221Z,1013.91
2016-06-24T09:13:16.236Z,1013.88
2016-06-24T09:14:16.255Z,1013.87
2016-06-24T09:15:16.274Z,1013.8
2016-06-24T09:16:16.285Z,1013.9
2016-06-24T09:17:16.448Z,1013.83
2016-06-24T09:18:16.612Z,1013.85
2016-06-24T09:19:16.578Z,1013.87
2016-06-24T09:20:16.337Z,1013.82
2016-06-24T09:21:16.351Z,1013.87
2016-06-24T09:22:16.367Z,1013.81
2016-06-24T09:23:16.381Z,1013.81
2016-06-24T09:24:16.395Z,1013.77
2016-06-24T09:25:16.407Z,1013.77
2016-06-24T09:26:16.421Z,1013.79
2016-06-24T09:27:16.435Z,1013.79
2016-06-24T09:28:16.447Z,1013.76
2016-06-24T09:29:16.458Z,1013.77
2016-06-24T09:30:16.467Z,1013.75
2016-06-24T09:31:16.484Z,1013.75
2016-06-24T09:32:16.489Z,1013.76
2016-06-24T09:33:16.506Z,1013.72
2016-06-24T09:34:16.519Z,1013.7
2016-06-24T09:35:16.530Z,1013.72
2016-06-24T09:36:16.541Z,1013.67
2016-06-24T09:37:16.549Z,1013.69
2016-06-24T09:38:16.564Z,1013.7
2016-06-24T09:39:16.579Z,1013.7
2016-06-24T09:40:16.588Z,1013.66
2016-06-24T09:41:16.601Z,1013.64
2016-06-24T09:42:16.614Z,1013.66
2016-06-24T09:43:16.624Z,1013.65
2016-06-24T09:44:16.631Z,1013.64
2016-06-24T09:45:16.642Z,1013.66
2016-06-24T09:46:16.654Z,1013.61
2016-06-24T09:47:16.668Z,1013.6
2016-06-24T09:48:16.675Z,1013.63
2016-06-24T09:49:16.690Z,1013.64
2016-06-24T09:50:16.704Z,1013.63
2016-06-24T09:51:16.708Z,1013.64
2016-06-24T09:52:16.721Z,1013.64
2016-06-24T09:53:16.730Z,1013.65
2016-06-24T09:54:16.742Z,1013.67
2016-06-24T09:55:16.752Z,1013.68
2016-06-24T09:56:16.762Z,1013.61
2016-06-24T09:57:16.774Z,1013.59
2016-06-24T09:58:16.785Z,1013.63
2016-06-24T09:59:16.798Z,1013.62
2016-06-24T10:00:16.808Z,1013.57
2016-06-24T10:01:16.812Z,1013.55
2016-06-24T10:02:16.828Z,1013.57
2016-06-24T10:03:16.835Z,1013.56
2016-06-24T10:04:16.850Z,1013.56
2016-06-24T10:05:17.594Z,1013.54
2016-06-24T10:06:18.187Z,1013.56
2016-06-24T10:07:16.891Z,1013.56
2016-06-24T10:08:16.892Z,1013.57
2016-06-24T10:09:16.904Z,1013.58
2016-06-24T10:10:17.393Z,1013.57
2016-06-24T10:11:16.924Z,1013.57
2016-06-24T10:12:16.930Z,1013.54
2016-06-24T10:13:16.945Z,1013.58
2016-06-24T10:14:16.953Z,1013.55
2016-06-24T10:15:16.965Z,1013.51
2016-06-24T10:16:16.981Z,1013.52
2016-06-24T10:17:16.984Z,1013.5
2016-06-24T10:18:16.996Z,1013.45
2016-06-24T10:19:17.006Z,1013.47
2016-06-24T10:20:17.021Z,1013.43
2016-06-24T10:21:17.029Z,1013.44
2016-06-24T10:22:17.042Z,1013.42
2016-06-24T10:23:17.754Z,1013.47
2016-06-24T10:24:17.063Z,1013.45
2016-06-24T10:25:17.071Z,1013.44
2016-06-24T10:26:17.632Z,1013.43
2016-06-24T10:27:17.097Z,1013.43
2016-06-24T10:28:17.103Z,1013.38
2016-06-24T10:29:17.114Z,1013.34
2016-06-24T10:30:17.126Z,1013.33
2016-06-24T10:31:17.182Z,1013.32
2016-06-24T10:32:17.144Z,1013.37
2016-06-24T10:33:17.163Z,1013.36
2016-06-24T10:34:17.169Z,1013.33
2016-06-24T10:35:17.175Z,1013.34
2016-06-24T10:37:17.199Z,1013.29
2016-06-24T10:38:17.213Z,1013.28
2016-06-24T10:39:17.222Z,1013.3
2016-06-24T10:40:17.227Z,1013.29
2016-06-24T10:41:17.241Z,1013.25
2016-06-24T10:42:17.253Z,1013.28
2016-06-24T10:43:17.263Z,1013.28
2016-06-24T10:44:17.272Z,1013.26
2016-06-24T10:45:17.282Z,1013.25
2016-06-24T10:46:17.293Z,1013.24
2016-06-24T10:47:17.301Z,1013.18
2016-06-24T10:48:17.314Z,1013.19
2016-06-24T10:49:17.319Z,1013.16
2016-06-24T10:50:17.335Z,1013.16
2016-06-24T10:51:17.348Z,1013.18
2016-06-24T10:52:17.359Z,1013.19
2016-06-24T10:53:17.371Z,1013.17
2016-06-24T10:54:17.375Z,1013.15
2016-06-24T10:55:17.401Z,1013.18
2016-06-24T10:56:17.405Z,1013.15
2016-06-24T10:57:17.408Z,1013.17
2016-06-24T10:58:17.427Z,1013.13
2016-06-24T10:59:17.441Z,1013.14
2016-06-24T11:00:17.440Z,1013.13
2016-06-24T11:01:17.451Z,1013.11
2016-06-24T11:02:17.458Z,1013.12
2016-06-24T11:03:17.474Z,1013.09
2016-06-24T11:04:17.488Z,1013.08
2016-06-24T11:05:17.494Z,1013.11
2016-06-24T11:06:17.506Z,1013.11
2016-06-24T11:07:17.515Z,1013.1
2016-06-24T11:08:17.525Z,1013.11
2016-06-24T11:09:17.539Z,1013.11
2016-06-24T11:10:17.545Z,1013.14
2016-06-24T11:11:17.557Z,1013.11
2016-06-24T11:12:17.569Z,1013.13
2016-06-24T11:13:17.585Z,1013.09
2016-06-24T11:14:17.594Z,1013.1
2016-06-24T11:15:17.603Z,1013.1
2016-06-24T11:16:17.616Z,1013.03
2016-06-24T11:17:17.670Z,1013.08
2016-06-24T11:18:17.633Z,1013.05
2016-06-24T11:19:17.645Z,1013.04
2016-06-24T11:20:17.655Z,1013.05
2016-06-24T11:21:17.669Z,1013.06
2016-06-24T11:22:17.676Z,1013.06
2016-06-24T11:23:17.692Z,1013.1
2016-06-24T11:24:18.578Z,1013.06
2016-06-24T11:25:17.711Z,1013.01
2016-06-24T11:26:17.720Z,1012.99
2016-06-24T11:27:17.731Z,1013
2016-06-24T11:28:17.820Z,1013.01
2016-06-24T11:29:18.206Z,1013.01
2016-06-24T11:30:17.758Z,1013
2016-06-24T11:31:17.767Z,1012.97
2016-06-24T11:32:19.374Z,1012.97
2016-06-24T11:33:17.790Z,1013
2016-06-24T11:34:17.802Z,1012.99
2016-06-24T11:35:17.813Z,1012.96
2016-06-24T11:36:17.827Z,1012.95
2016-06-24T11:37:17.830Z,1012.96
2016-06-24T11:38:17.860Z,1012.96
2016-06-24T11:39:17.953Z,1013.02
2016-06-24T11:40:17.864Z,1012.97
2016-06-24T11:41:17.921Z,1012.99
2016-06-24T11:42:17.890Z,1012.96
2016-06-24T11:44:17.909Z,1013.02
2016-06-24T11:45:18.059Z,1013.03
2016-06-24T11:46:18.054Z,1013.01
2016-06-24T11:47:18.046Z,1012.97
2016-06-24T11:48:17.951Z,1012.98
2016-06-24T11:49:17.962Z,1012.95
2016-06-24T11:50:17.966Z,1012.93
2016-06-24T11:51:17.987Z,1012.93
2016-06-24T11:53:18.002Z,1012.91
2016-06-24T11:54:18.164Z,1012.91
2016-06-24T11:55:18.025Z,1012.9
2016-06-24T11:56:18.037Z,1012.92
2016-06-24T11:57:18.044Z,1012.92
2016-06-24T11:58:18.060Z,1012.89
2016-06-24T11:59:18.068Z,1012.87
2016-06-24T12:00:18.079Z,1012.88
2016-06-24T12:01:18.088Z,1012.88
2016-06-24T12:02:18.114Z,1012.84
2016-06-24T12:03:18.110Z,1012.85
2016-06-24T12:04:18.122Z,1012.88
2016-06-24T12:05:18.143Z,1012.85
2016-06-24T12:06:18.146Z,1012.82
2016-06-24T12:07:18.151Z,1012.83
2016-06-24T12:08:18.163Z,1012.83
2016-06-24T12:09:18.169Z,1012.83
2016-06-24T12:10:18.186Z,1012.83
2016-06-24T12:11:18.190Z,1012.79
2016-06-24T12:12:18.203Z,1012.81
2016-06-24T12:13:18.214Z,1012.75
2016-06-24T12:14:18.225Z,1012.79
2016-06-24T12:15:18.238Z,1012.75
2016-06-24T12:16:18.250Z,1012.77